sensor_id;sensor_type;location;lat;lon;timestamp;temperature;humidity
26049;DHT22;13822;51.568;5.086;2022-10-17T05:01:07;16.00;99.90
26049;DHT22;13822;51.568;5.086;2022-10-17T05:06:17;16.00;99.90
26049;DHT22;13822;51.568;5.086;2022-10-17T05:11:22;16.10;99.90
26049;DHT22;13822;51.568;5.086;2022-10-17T05:16:28;16.20;99.90
26049;DHT22;13822;51.568;5.086;2022-10-17T05:21:30;16.20;99.90
26049;DHT22;13822;51.568;5.086;2022-10-17T05:26:33;16.20;99.90
26049;DHT22;13822;51.568;5.086;2022-10-17T05:31:35;16.30;99.90
26049;DHT22;13822;51.568;5.086;2022-10-17T05:36:37;16.40;99.90
26049;DHT22;13822;51.568;5.086;2022-10-17T05:41:39;16.50;99.90
26049;DHT22;13822;51.568;5.086;2022-10-17T05:46:41;16.50;99.90
26049;DHT22;13822;51.568;5.086;2022-10-17T05:51:43;16.50;99.90
26049;DHT22;13822;51.568;5.086;2022-10-17T05:56:44;16.60;99.90
26049;DHT22;13822;51.568;5.086;2022-10-17T06:01:46;16.60;99.90
26049;DHT22;13822;51.568;5.086;2022-10-17T06:06:48;16.70;99.90
26049;DHT22;13822;51.568;5.086;2022-10-17T06:11:50;16.70;99.90
26049;DHT22;13822;51.568;5.086;2022-10-17T06:16:52;16.80;99.90
26049;DHT22;13822;51.568;5.086;2022-10-17T06:21:54;16.80;99.90
26049;DHT22;13822;51.568;5.086;2022-10-17T06:26:56;16.80;99.90
26049;DHT22;13822;51.568;5.086;2022-10-17T06:31:58;16.90;99.90
26049;DHT22;13822;51.568;5.086;2022-10-17T06:37:22;16.90;99.90
26049;DHT22;13822;51.568;5.086;2022-10-17T06:42:24;16.90;99.90
26049;DHT22;13822;51.568;5.086;2022-10-17T06:47:26;17.00;99.90
26049;DHT22;13822;51.568;5.086;2022-10-17T06:52:28;17.00;99.90
26049;DHT22;13822;51.568;5.086;2022-10-17T06:57:30;17.10;99.90
26049;DHT22;13822;51.568;5.086;2022-10-17T07:02:32;17.10;99.90
26049;DHT22;13822;51.568;5.086;2022-10-17T07:07:34;17.20;99.90
26049;DHT22;13822;51.568;5.086;2022-10-17T07:12:41;17.20;99.90
26049;DHT22;13822;51.568;5.086;2022-10-17T07:17:48;17.20;99.90
26049;DHT22;13822;51.568;5.086;2022-10-17T07:22:51;17.30;99.90
26049;DHT22;13822;51.568;5.086;2022-10-17T07:27:53;17.30;99.90
26049;DHT22;13822;51.568;5.086;2022-10-17T07:32:55;17.30;99.90
26049;DHT22;13822;51.568;5.086;2022-10-17T07:37:56;17.40;99.90
26049;DHT22;13822;51.568;5.086;2022-10-17T07:42:59;17.30;99.90
26049;DHT22;13822;51.568;5.086;2022-10-17T07:48:01;17.10;99.90
26049;DHT22;13822;51.568;5.086;2022-10-17T07:53:02;17.00;99.90
26049;DHT22;13822;51.568;5.086;2022-10-17T07:58:04;17.00;99.90
26049;DHT22;13822;51.568;5.086;2022-10-17T08:03:07;16.90;99.90
26049;DHT22;13822;51.568;5.086;2022-10-17T08:08:11;16.90;99.90
26049;DHT22;13822;51.568;5.086;2022-10-17T08:13:13;16.80;99.90
26049;DHT22;13822;51.568;5.086;2022-10-17T08:18:15;16.80;99.90
26049;DHT22;13822;51.568;5.086;2022-10-17T08:23:18;16.80;99.90
26049;DHT22;13822;51.568;5.086;2022-10-17T08:28:27;16.70;99.90
26049;DHT22;13822;51.568;5.086;2022-10-17T08:33:29;16.70;99.90
26049;DHT22;13822;51.568;5.086;2022-10-17T08:38:34;16.60;99.90
26049;DHT22;13822;51.568;5.086;2022-10-17T08:48:51;16.60;99.90
26049;DHT22;13822;51.568;5.086;2022-10-17T08:53:59;16.60;99.90
26049;DHT22;13822;51.568;5.086;2022-10-17T08:59:09;16.60;99.90
26049;DHT22;13822;51.568;5.086;2022-10-17T09:09:54;16.60;99.90
26049;DHT22;13822;51.568;5.086;2022-10-17T09:20:32;16.60;99.90
26049;DHT22;13822;51.568;5.086;2022-10-17T09:25:45;16.60;99.90
26049;DHT22;13822;51.568;5.086;2022-10-17T09:41:23;16.60;99.90
26049;DHT22;13822;51.568;5.086;2022-10-17T09:52:13;16.70;99.90
26049;DHT22;13822;51.568;5.086;2022-10-17T09:57:24;16.60;99.90
26049;DHT22;13822;51.568;5.086;2022-10-17T10:02:28;16.60;99.90
26049;DHT22;13822;51.568;5.086;2022-10-17T10:07:32;16.60;99.90
26049;DHT22;13822;51.568;5.086;2022-10-17T10:12:37;16.70;99.90
26049;DHT22;13822;51.568;5.086;2022-10-17T10:17:40;16.70;99.90
26049;DHT22;13822;51.568;5.086;2022-10-17T10:22:42;16.80;99.90
26049;DHT22;13822;51.568;5.086;2022-10-17T10:27:44;16.70;99.90
26049;DHT22;13822;51.568;5.086;2022-10-17T10:32:47;16.80;99.90
26049;DHT22;13822;51.568;5.086;2022-10-17T10:37:50;16.80;99.90
26049;DHT22;13822;51.568;5.086;2022-10-17T10:42:55;16.70;99.90
26049;DHT22;13822;51.568;5.086;2022-10-17T10:48:13;16.70;99.90
26049;DHT22;13822;51.568;5.086;2022-10-17T10:59:12;16.80;99.90
26049;DHT22;13822;51.568;5.086;2022-10-17T11:09:53;16.80;99.90
26049;DHT22;13822;51.568;5.086;2022-10-17T11:15:06;16.90;99.90
26049;DHT22;13822;51.568;5.086;2022-10-17T11:20:37;16.90;99.90
26049;DHT22;13822;51.568;5.086;2022-10-17T11:25:39;16.90;99.90
26049;DHT22;13822;51.568;5.086;2022-10-17T11:30:49;16.90;99.90
26049;DHT22;13822;51.568;5.086;2022-10-17T11:35:52;16.90;99.90
26049;DHT22;13822;51.568;5.086;2022-10-17T11:40:59;16.80;99.90
26049;DHT22;13822;51.568;5.086;2022-10-17T11:46:21;16.90;99.90
26049;DHT22;13822;51.568;5.086;2022-10-17T11:51:24;16.90;99.90
26049;DHT22;13822;51.568;5.086;2022-10-17T11:56:58;16.90;99.90
26049;DHT22;13822;51.568;5.086;2022-10-17T12:02:21;17.00;99.90
26049;DHT22;13822;51.568;5.086;2022-10-17T12:07:47;17.00;99.90
26049;DHT22;13822;51.568;5.086;2022-10-17T12:12:55;17.10;99.90
26049;DHT22;13822;51.568;5.086;2022-10-17T12:18:00;17.10;99.90
26049;DHT22;13822;51.568;5.086;2022-10-17T12:23:05;17.10;99.90
26049;DHT22;13822;51.568;5.086;2022-10-17T12:28:30;17.10;99.90
26049;DHT22;13822;51.568;5.086;2022-10-17T12:38:34;17.20;99.90
26049;DHT22;13822;51.568;5.086;2022-10-17T12:49:02;17.30;99.90
26049;DHT22;13822;51.568;5.086;2022-10-17T12:59:13;17.30;99.90
26049;DHT22;13822;51.568;5.086;2022-10-17T13:04:16;17.40;99.90
26049;DHT22;13822;51.568;5.086;2022-10-17T13:09:52;17.30;99.90
26049;DHT22;13822;51.568;5.086;2022-10-17T13:14:47;17.30;99.90
26049;DHT22;13822;51.568;5.086;2022-10-17T13:19:51;17.30;99.90
26049;DHT22;13822;51.568;5.086;2022-10-17T13:25:04;17.30;99.90
26049;DHT22;13822;51.568;5.086;2022-10-17T13:30:27;17.30;99.90
26049;DHT22;13822;51.568;5.086;2022-10-17T13:35:33;17.30;99.90
26049;DHT22;13822;51.568;5.086;2022-10-17T13:40:57;17.30;99.90
26049;DHT22;13822;51.568;5.086;2022-10-17T13:46:25;17.40;99.90
26049;DHT22;13822;51.568;5.086;2022-10-17T13:51:44;17.30;99.90
26049;DHT22;13822;51.568;5.086;2022-10-17T13:56:53;17.40;99.90
26049;DHT22;13822;51.568;5.086;2022-10-17T14:02:01;17.40;99.90
26049;DHT22;13822;51.568;5.086;2022-10-17T14:07:04;17.50;99.90
26049;DHT22;13822;51.568;5.086;2022-10-17T14:12:11;17.60;99.90
26049;DHT22;13822;51.568;5.086;2022-10-17T14:17:14;17.60;99.90
26049;DHT22;13822;51.568;5.086;2022-10-17T14:32:35;17.70;99.90
26049;DHT22;13822;51.568;5.086;2022-10-17T14:37:42;17.70;99.90
26049;DHT22;13822;51.568;5.086;2022-10-17T14:42:45;17.70;99.90
26049;DHT22;13822;51.568;5.086;2022-10-17T14:47:49;17.70;99.90
26049;DHT22;13822;51.568;5.086;2022-10-17T14:53:05;17.70;99.90
26049;DHT22;13822;51.568;5.086;2022-10-17T14:58:17;17.70;99.90
26049;DHT22;13822;51.568;5.086;2022-10-17T15:03:25;17.70;99.90
26049;DHT22;13822;51.568;5.086;2022-10-17T15:08:27;17.70;99.90
26049;DHT22;13822;51.568;5.086;2022-10-17T15:13:29;17.70;99.90
26049;DHT22;13822;51.568;5.086;2022-10-17T15:18:39;17.70;99.90
26049;DHT22;13822;51.568;5.086;2022-10-17T15:23:41;17.70;99.90
26049;DHT22;13822;51.568;5.086;2022-10-17T15:28:43;17.70;99.90
26049;DHT22;13822;51.568;5.086;2022-10-17T15:33:45;17.70;99.90
26049;DHT22;13822;51.568;5.086;2022-10-17T15:38:48;17.70;99.90
26049;DHT22;13822;51.568;5.086;2022-10-17T15:43:52;17.70;99.90
26049;DHT22;13822;51.568;5.086;2022-10-17T15:48:54;17.70;99.90
26049;DHT22;13822;51.568;5.086;2022-10-17T15:53:57;17.60;99.90
26049;DHT22;13822;51.568;5.086;2022-10-17T15:59:03;17.60;99.90
26049;DHT22;13822;51.568;5.086;2022-10-17T16:04:07;17.60;99.90
26049;DHT22;13822;51.568;5.086;2022-10-17T16:09:13;17.60;99.90
26049;DHT22;13822;51.568;5.086;2022-10-17T16:14:15;17.50;99.90
26049;DHT22;13822;51.568;5.086;2022-10-17T16:19:18;17.50;99.90
26049;DHT22;13822;51.568;5.086;2022-10-17T16:24:21;17.50;99.90
26049;DHT22;13822;51.568;5.086;2022-10-17T16:29:23;17.50;99.90
26049;DHT22;13822;51.568;5.086;2022-10-17T16:34:25;17.40;99.90
26049;DHT22;13822;51.568;5.086;2022-10-17T16:39:27;17.40;99.90
26049;DHT22;13822;51.568;5.086;2022-10-17T16:44:29;17.40;99.90
26049;DHT22;13822;51.568;5.086;2022-10-17T16:49:31;17.40;99.90
26049;DHT22;13822;51.568;5.086;2022-10-17T16:54:33;17.30;99.90
26049;DHT22;13822;51.568;5.086;2022-10-17T16:59:35;17.30;99.90
26049;DHT22;13822;51.568;5.086;2022-10-17T17:04:37;17.30;99.90
26049;DHT22;13822;51.568;5.086;2022-10-17T17:09:39;17.20;99.90
26049;DHT22;13822;51.568;5.086;2022-10-17T17:14:41;17.20;99.90
26049;DHT22;13822;51.568;5.086;2022-10-17T17:19:43;17.10;99.90
26049;DHT22;13822;51.568;5.086;2022-10-17T17:24:44;17.10;99.90
